Time;durP1;ratioP1;P1;durP2;ratioP2;P2;SDS_P1;SDS_P2;PMS_P1;PMS_P2;Temp;Humidity;BMP_temperature;BMP_pressure;BME280_temperature;BME280_humidity;BME280_pressure;Samples;Min_cycle;Max_cycle;Signal;HPM_P1;HPM_P2
2022/10/08 00:01:03;;;;;;;12.85;3.08;;;14.70;99.90;;;;;;4973263;28;104991;-75
2022/10/08 00:03:33;;;;;;;10.60;3.63;;;14.70;99.90;;;;;;4975044;28;98522;-75
2022/10/08 00:06:00;;;;;;;8.45;2.65;;;14.80;99.90;;;;;;4974736;28;99366;-75
2022/10/08 00:08:30;;;;;;;6.32;2.40;;;14.80;99.90;;;;;;4974803;28;98440;-73
2022/10/08 00:10:59;;;;;;;10.75;2.63;;;14.80;99.90;;;;;;4973664;28;98534;-73
2022/10/08 00:13:39;;;;;;;11.77;2.75;;;14.80;99.90;;;;;;4973633;28;98602;-73
2022/10/08 00:16:11;;;;;;;7.72;2.33;;;14.80;99.90;;;;;;4974264;28;100065;-73
2022/10/08 00:18:40;;;;;;;8.60;3.10;;;14.90;99.90;;;;;;4973162;28;99914;-73
2022/10/08 00:21:13;;;;;;;9.57;2.92;;;14.90;99.90;;;;;;4957397;28;99091;-73
2022/10/08 00:23:40;;;;;;;7.43;2.58;;;14.90;99.90;;;;;;4973211;28;98546;-73
2022/10/08 00:26:08;;;;;;;10.15;2.65;;;14.90;99.90;;;;;;4972905;28;101917;-73
2022/10/08 00:28:36;;;;;;;7.50;2.55;;;15.00;99.90;;;;;;4973527;28;99096;-73
2022/10/08 00:31:09;;;;;;;9.30;2.75;;;14.90;99.90;;;;;;4973194;28;98565;-73
2022/10/08 00:33:37;;;;;;;9.23;2.90;;;14.90;99.90;;;;;;4973321;28;97840;-73
2022/10/08 00:36:08;;;;;;;9.38;2.78;;;15.00;99.90;;;;;;4973896;28;106590;-73
2022/10/08 00:38:35;;;;;;;10.07;3.30;;;15.00;99.90;;;;;;4972903;28;98764;-73
2022/10/08 00:41:06;;;;;;;8.23;3.15;;;15.00;99.90;;;;;;4973049;28;99869;-73
2022/10/08 00:43:41;;;;;;;10.55;2.75;;;15.00;99.90;;;;;;4973242;28;99091;-73
2022/10/08 00:46:34;;;;;;;10.25;2.83;;;15.10;99.90;;;;;;4972896;28;99445;-73
2022/10/08 00:49:10;;;;;;;9.70;2.90;;;15.10;99.90;;;;;;4969136;28;99047;-73
2022/10/08 00:51:48;;;;;;;10.73;2.80;;;15.00;99.90;;;;;;4974261;28;98481;-73
2022/10/08 00:54:18;;;;;;;7.85;3.00;;;15.10;99.90;;;;;;4974267;28;98517;-73
2022/10/08 00:56:48;;;;;;;10.20;3.15;;;15.00;99.90;;;;;;4972187;28;102158;-73
2022/10/08 00:59:16;;;;;;;8.13;3.08;;;15.00;99.90;;;;;;4974301;28;99052;-73
2022/10/08 01:01:43;;;;;;;7.60;2.80;;;15.00;99.90;;;;;;4972355;28;98719;-73
2022/10/08 01:04:12;;;;;;;8.18;3.03;;;15.00;99.90;;;;;;4972883;28;98674;-73
2022/10/08 01:06:39;;;;;;;9.55;2.92;;;15.00;99.90;;;;;;4971872;28;100692;-73
2022/10/08 01:09:12;;;;;;;6.72;2.53;;;15.00;99.90;;;;;;4973858;28;99773;-73
2022/10/08 01:12:01;;;;;;;7.93;2.80;;;15.00;99.90;;;;;;4973711;28;98438;-73
2022/10/08 01:14:34;;;;;;;;;;;15.00;99.90;;;;;;4974652;28;98666;-73
2022/10/08 01:17:01;;;;;;;8.48;2.95;;;14.80;99.90;;;;;;4973183;28;101732;-73
2022/10/08 01:19:34;;;;;;;8.23;3.13;;;14.80;99.90;;;;;;4971499;28;115680;-73
2022/10/08 01:22:30;;;;;;;9.73;3.03;;;14.80;99.90;;;;;;4973782;28;98510;-73
2022/10/08 01:28:17;;;;;;;10.25;3.30;;;14.90;99.90;;;;;;4971337;28;101790;-73
2022/10/08 01:31:08;;;;;;;9.95;3.03;;;14.80;99.90;;;;;;4971292;28;103008;-73
2022/10/08 01:34:00;;;;;;;9.65;3.42;;;14.80;99.90;;;;;;4973490;28;99178;-73
2022/10/08 01:36:34;;;;;;;8.35;3.30;;;14.80;99.90;;;;;;4972210;28;98590;-73
2022/10/08 01:39:07;;;;;;;9.07;3.58;;;14.70;99.90;;;;;;4973200;28;99375;-73
2022/10/08 01:41:34;;;;;;;12.38;3.42;;;14.70;99.90;;;;;;4973293;28;99133;-73
2022/10/08 01:44:12;;;;;;;8.82;3.15;;;14.70;99.90;;;;;;4971923;28;98609;-73
2022/10/08 01:46:43;;;;;;;7.25;3.22;;;14.70;99.90;;;;;;4972198;28;98663;-73
2022/10/08 01:49:16;;;;;;;9.43;3.00;;;14.70;99.90;;;;;;4973247;28;99316;-73
2022/10/08 01:51:57;;;;;;;11.88;3.47;;;14.60;99.90;;;;;;4973062;28;99150;-73
2022/10/08 01:54:27;;;;;;;8.02;2.67;;;14.60;99.90;;;;;;4973624;28;98535;-73
2022/10/08 01:56:57;;;;;;;11.50;3.05;;;14.60;99.90;;;;;;4971685;28;98577;-73
2022/10/08 01:59:41;;;;;;;6.30;3.00;;;14.60;99.90;;;;;;4972448;28;100116;-73
2022/10/08 02:02:18;;;;;;;11.48;3.40;;;14.60;99.90;;;;;;4972037;28;99697;-73
2022/10/08 02:04:46;;;;;;;10.30;4.28;;;14.50;99.90;;;;;;4971542;28;98536;-73
2022/10/08 02:07:21;;;;;;;8.35;3.28;;;14.50;99.90;;;;;;4956165;28;98547;-72
2022/10/08 02:10:20;;;;;;;8.82;3.80;;;14.50;99.90;;;;;;4954998;28;101942;-73
2022/10/08 02:12:47;;;;;;;12.60;4.00;;;14.50;99.90;;;;;;4969374;28;99076;-73
2022/10/08 02:15:26;;;;;;;7.97;4.00;;;14.50;99.90;;;;;;4973036;28;98562;-73
2022/10/08 02:18:09;;;;;;;12.35;4.28;;;14.50;99.90;;;;;;4971978;28;97761;-73
2022/10/08 02:20:49;;;;;;;7.80;3.70;;;14.50;99.90;;;;;;4971634;28;99394;-73
2022/10/08 02:23:25;;;;;;;9.05;4.20;;;14.40;99.90;;;;;;4971813;28;99067;-73
2022/10/08 02:25:59;;;;;;;8.98;3.50;;;14.40;99.90;;;;;;4971142;28;99366;-73
2022/10/08 02:28:42;;;;;;;9.27;4.03;;;14.30;99.90;;;;;;4972393;28;99676;-73
2022/10/08 02:31:24;;;;;;;7.93;4.17;;;14.30;99.90;;;;;;4972584;28;103026;-73
2022/10/08 02:34:11;;;;;;;12.73;4.32;;;14.30;99.90;;;;;;4954359;28;105520;-73
2022/10/08 02:36:41;;;;;;;9.20;4.35;;;14.30;99.90;;;;;;4971902;28;99030;-73
2022/10/08 02:39:11;;;;;;;8.98;4.13;;;14.20;99.90;;;;;;4987780;28;98631;-73
2022/10/08 02:42:00;;;;;;;7.80;5.35;;;14.20;99.90;;;;;;4971038;28;99471;-73
2022/10/08 02:44:46;;;;;;;10.18;4.82;;;14.30;99.90;;;;;;4972988;28;99134;-73
2022/10/08 02:47:18;;;;;;;8.00;4.32;;;14.20;99.90;;;;;;4971679;28;98621;-72
2022/10/08 02:49:53;;;;;;;10.45;4.90;;;14.10;99.90;;;;;;4971351;28;98605;-72
2022/10/08 02:52:22;;;;;;;7.57;4.50;;;14.00;99.90;;;;;;4971891;28;100244;-73
2022/10/08 02:54:51;;;;;;;6.65;4.18;;;13.90;99.90;;;;;;4971197;28;100115;-73
2022/10/08 02:57:22;;;;;;;9.60;4.78;;;13.90;99.90;;;;;;4971501;28;98514;-72
2022/10/08 02:59:49;;;;;;;10.93;5.38;;;13.80;99.90;;;;;;4971174;28;98642;-73
2022/10/08 03:02:28;;;;;;;9.77;4.32;;;13.70;99.90;;;;;;4972121;28;99255;-73
2022/10/08 03:05:00;;;;;;;9.80;4.72;;;13.70;99.90;;;;;;4970469;28;101655;-73
2022/10/08 03:07:30;;;;;;;10.10;4.80;;;13.60;99.90;;;;;;4971207;28;98537;-73
2022/10/08 03:10:02;;;;;;;11.50;4.80;;;13.60;99.90;;;;;;4970679;28;106730;-73
2022/10/08 03:12:30;;;;;;;8.13;4.63;;;13.60;99.90;;;;;;4972468;28;99407;-73
2022/10/08 03:14:57;;;;;;;10.25;5.22;;;13.50;99.90;;;;;;4971878;28;99205;-73
2022/10/08 03:17:30;;;;;;;7.15;4.40;;;13.50;99.90;;;;;;4970866;28;99336;-73
2022/10/08 03:19:59;;;;;;;9.48;4.03;;;13.50;99.90;;;;;;4972407;28;98782;-73
2022/10/08 03:22:26;;;;;;;10.02;4.68;;;13.40;99.90;;;;;;4972012;28;99045;-73
2022/10/08 03:24:53;;;;;;;12.23;4.85;;;13.30;99.90;;;;;;4971836;28;101556;-73
2022/10/08 03:27:22;;;;;;;8.73;4.97;;;13.30;99.90;;;;;;4974318;28;98609;-73
2022/10/08 03:29:55;;;;;;;9.02;4.75;;;13.20;99.90;;;;;;4975362;28;99143;-73
2022/10/08 03:32:23;;;;;;;10.37;4.70;;;13.20;99.90;;;;;;4975391;28;99419;-73
2022/10/08 03:34:50;;;;;;;10.60;4.78;;;13.10;99.90;;;;;;4975041;28;109822;-73
2022/10/08 03:37:17;;;;;;;12.13;4.65;;;13.10;99.90;;;;;;4975560;28;98863;-73
2022/10/08 03:39:44;;;;;;;7.93;4.78;;;13.10;99.90;;;;;;4973936;28;98545;-73
2022/10/08 03:42:12;;;;;;;8.50;4.63;;;13.00;99.90;;;;;;4974448;28;100142;-73
2022/10/08 03:44:39;;;;;;;12.02;5.18;;;13.00;99.90;;;;;;4973889;28;100458;-73
2022/10/08 03:47:05;;;;;;;10.88;4.93;;;13.00;99.90;;;;;;4975605;28;98885;-72
2022/10/08 03:49:32;;;;;;;9.52;4.90;;;12.90;99.90;;;;;;4975319;28;98506;-72
2022/10/08 03:51:59;;;;;;;8.90;4.93;;;12.90;99.90;;;;;;4973366;28;101971;-72
2022/10/08 03:54:26;;;;;;;7.53;5.20;;;12.90;99.90;;;;;;4973590;28;99037;-72
2022/10/08 03:56:53;;;;;;;9.55;5.78;;;12.80;99.90;;;;;;4973716;28;98589;-72
2022/10/08 03:59:20;;;;;;;11.65;5.82;;;12.80;99.90;;;;;;4957647;28;97831;-72
2022/10/08 04:01:47;;;;;;;9.30;4.75;;;12.80;99.90;;;;;;4957258;28;101684;-72
2022/10/08 04:04:14;;;;;;;12.35;5.43;;;12.70;99.90;;;;;;4974544;28;99031;-72
2022/10/08 04:06:41;;;;;;;9.85;5.32;;;12.70;99.90;;;;;;4973314;28;99930;-72
2022/10/08 04:09:09;;;;;;;13.43;5.82;;;12.70;99.90;;;;;;4974832;28;98565;-72
2022/10/08 04:11:36;;;;;;;10.25;4.85;;;12.70;99.90;;;;;;4974521;28;99252;-72
2022/10/08 04:14:03;;;;;;;9.95;6.43;;;12.70;99.90;;;;;;4956707;28;101684;-73
2022/10/08 04:16:30;;;;;;;11.43;5.25;;;12.70;99.90;;;;;;4974952;28;98570;-73
2022/10/08 04:18:57;;;;;;;10.45;5.20;;;12.70;99.90;;;;;;4973256;28;98656;-73
2022/10/08 04:21:24;;;;;;;10.20;5.25;;;12.70;99.90;;;;;;4974342;28;99362;-73
2022/10/08 04:23:51;;;;;;;6.20;4.22;;;12.70;99.90;;;;;;4957005;28;106935;-73
2022/10/08 04:26:17;;;;;;;7.22;5.00;;;12.60;99.90;;;;;;4973618;28;98491;-73
2022/10/08 04:28:46;;;;;;;9.60;4.85;;;12.60;99.90;;;;;;4973183;28;98594;-73
2022/10/08 04:31:20;;;;;;;12.75;5.13;;;12.60;99.90;;;;;;4973841;28;100063;-72
2022/10/08 04:33:47;;;;;;;7.80;5.05;;;12.60;99.90;;;;;;4973071;28;99513;-72
2022/10/08 04:36:17;;;;;;;11.70;5.55;;;12.50;99.90;;;;;;4972737;28;98623;-73
2022/10/08 04:38:45;;;;;;;12.18;5.70;;;12.50;99.90;;;;;;4973182;28;98592;-73
2022/10/08 04:41:23;;;;;;;10.85;4.97;;;12.50;99.90;;;;;;4956607;28;102117;-73
2022/10/08 04:43:51;;;;;;;8.63;5.25;;;12.50;99.90;;;;;;4974505;28;99282;-72
2022/10/08 04:46:20;;;;;;;9.82;5.13;;;12.40;99.90;;;;;;4974324;28;98487;-72
2022/10/08 04:48:50;;;;;;;9.05;4.85;;;12.40;99.90;;;;;;4973593;28;97833;-72
2022/10/08 04:51:18;;;;;;;10.05;4.88;;;12.40;99.90;;;;;;4972533;28;102205;-72
2022/10/08 04:53:45;;;;;;;8.40;5.10;;;12.30;99.90;;;;;;4956350;28;101716;-72
2022/10/08 04:56:15;;;;;;;7.47;4.85;;;12.30;99.90;;;;;;4972356;28;99402;-72
2022/10/08 04:58:43;;;;;;;9.98;4.82;;;12.30;99.90;;;;;;4972648;28;98598;-72
2022/10/08 05:01:12;;;;;;;10.40;4.68;;;12.30;99.90;;;;;;4972306;28;110619;-72
2022/10/08 05:03:42;;;;;;;14.70;5.38;;;12.30;99.90;;;;;;4972109;28;101741;-72
2022/10/08 05:06:09;;;;;;;10.75;5.00;;;12.30;99.90;;;;;;4973962;28;98885;-72
2022/10/08 05:08:37;;;;;;;10.48;5.80;;;12.30;99.90;;;;;;4974024;28;98524;-72
2022/10/08 05:11:04;;;;;;;12.18;5.53;;;12.30;99.90;;;;;;4973659;28;99351;-72
2022/10/08 05:13:31;;;;;;;8.48;5.70;;;12.30;99.90;;;;;;4972441;28;101569;-72
2022/10/08 05:16:06;;;;;;;13.80;5.63;;;12.30;99.90;;;;;;4972791;28;98499;-72
2022/10/08 05:18:34;;;;;;;7.05;5.25;;;12.30;99.90;;;;;;4974051;28;98462;-73
2022/10/08 05:21:05;;;;;;;13.68;5.47;;;12.20;99.90;;;;;;4971583;28;103317;-73
2022/10/08 05:23:33;;;;;;;15.82;6.15;;;12.20;99.90;;;;;;4973335;28;99869;-73
2022/10/08 05:26:01;;;;;;;13.25;5.45;;;12.20;99.90;;;;;;4956362;28;99096;-73
2022/10/08 05:28:28;;;;;;;11.98;5.25;;;12.20;99.90;;;;;;4955533;28;98656;-73
2022/10/08 05:30:59;;;;;;;9.90;5.15;;;12.20;99.90;;;;;;4973382;28;99521;-73
2022/10/08 05:33:26;;;;;;;8.50;5.05;;;12.20;99.90;;;;;;4972102;28;99080;-73
2022/10/08 05:35:53;;;;;;;9.43;4.78;;;12.20;99.90;;;;;;4973658;28;98525;-73
2022/10/08 05:38:20;;;;;;;12.95;5.18;;;12.20;99.90;;;;;;4973931;28;97775;-72
2022/10/08 05:40:47;;;;;;;7.82;4.57;;;12.10;99.90;;;;;;4955510;28;101858;-73
2022/10/08 05:43:14;;;;;;;7.13;4.60;;;12.10;99.90;;;;;;4971147;28;101554;-74
2022/10/08 05:45:49;;;;;;;10.10;4.78;;;12.10;99.90;;;;;;4973418;28;99833;-74
2022/10/08 05:48:16;;;;;;;7.85;4.95;;;12.20;99.90;;;;;;4954416;28;98672;-74
2022/10/08 05:50:42;;;;;;;8.32;4.10;;;12.10;99.90;;;;;;4973157;28;99277;-75
2022/10/08 05:53:09;;;;;;;11.43;4.55;;;12.10;99.90;;;;;;4955379;28;101819;-75
2022/10/08 05:55:36;;;;;;;8.25;4.00;;;12.10;99.90;;;;;;4972071;28;98556;-75
2022/10/08 05:58:03;;;;;;;10.57;4.57;;;12.10;99.90;;;;;;4971315;28;104589;-75
2022/10/08 06:00:30;;;;;;;12.93;4.30;;;12.10;99.90;;;;;;4955259;28;101780;-75
2022/10/08 06:02:57;;;;;;;11.15;4.40;;;12.10;99.90;;;;;;4939430;28;101823;-75
2022/10/08 06:05:24;;;;;;;6.70;3.30;;;12.10;99.90;;;;;;4972060;28;98821;-75
2022/10/08 06:07:51;;;;;;;11.57;3.88;;;12.10;99.90;;;;;;4972051;28;98511;-74
2022/10/08 06:10:18;;;;;;;11.18;3.95;;;12.10;99.90;;;;;;4972059;28;100173;-74
2022/10/08 06:12:47;;;;;;;12.93;4.10;;;12.10;99.90;;;;;;4955071;28;102574;-74
2022/10/08 06:15:15;;;;;;;11.18;4.65;;;12.20;99.90;;;;;;4973212;28;98573;-74
2022/10/08 06:17:42;;;;;;;11.65;3.78;;;12.20;99.90;;;;;;4972107;28;98513;-75
2022/10/08 06:20:08;;;;;;;9.65;3.42;;;12.10;99.90;;;;;;4972652;28;99437;-75
2022/10/08 06:22:35;;;;;;;10.88;4.20;;;12.20;99.90;;;;;;4971075;28;101652;-75
2022/10/08 06:25:02;;;;;;;10.00;4.03;;;12.20;99.90;;;;;;4971681;28;98658;-75
2022/10/08 06:27:29;;;;;;;8.57;3.35;;;12.20;99.90;;;;;;4971621;28;97852;-75
2022/10/08 06:29:56;;;;;;;7.82;3.42;;;12.20;99.90;;;;;;4970943;28;101849;-75
2022/10/08 06:32:23;;;;;;;7.30;3.80;;;12.20;99.90;;;;;;4970743;28;101840;-74
2022/10/08 06:34:51;;;;;;;9.85;3.78;;;12.30;99.90;;;;;;4954885;28;99223;-75
2022/10/08 06:37:18;;;;;;;10.70;3.83;;;12.30;99.90;;;;;;4973087;28;99424;-75
2022/10/08 06:39:45;;;;;;;11.68;3.55;;;12.40;99.90;;;;;;4970765;28;102102;-74
2022/10/08 06:42:14;;;;;;;12.73;3.67;;;12.40;99.90;;;;;;4955153;28;101984;-74
2022/10/08 06:44:42;;;;;;;7.82;3.05;;;12.40;99.90;;;;;;4955305;28;98626;-74
2022/10/08 06:47:10;;;;;;;9.02;3.78;;;12.50;99.90;;;;;;4972716;28;98998;-74
2022/10/08 06:49:38;;;;;;;10.80;3.05;;;12.50;99.90;;;;;;4970880;28;99648;-74
2022/10/08 06:52:05;;;;;;;7.38;2.90;;;12.60;99.90;;;;;;4971236;28;99016;-74
2022/10/08 06:54:32;;;;;;;7.63;3.33;;;12.70;99.90;;;;;;4972437;28;99063;-74
2022/10/08 06:56:59;;;;;;;5.97;2.40;;;12.80;99.90;;;;;;4972673;28;98526;-74
2022/10/08 06:59:27;;;;;;;6.55;2.33;;;13.00;99.90;;;;;;4970553;28;100024;-74
2022/10/08 07:01:54;;;;;;;7.78;2.97;;;13.30;99.90;;;;;;4975755;28;100263;-74
2022/10/08 07:04:21;;;;;;;7.10;2.80;;;13.40;99.90;;;;;;4974612;28;98555;-74
2022/10/08 07:06:48;;;;;;;9.25;2.60;;;13.60;99.90;;;;;;4976034;28;98580;-75
2022/10/08 07:09:15;;;;;;;10.10;2.38;;;13.70;99.90;;;;;;4974127;28;102002;-75
2022/10/08 07:11:42;;;;;;;8.73;2.58;;;13.70;99.90;;;;;;4974147;28;99109;-75
2022/10/08 07:14:09;;;;;;;6.07;2.53;;;13.70;99.90;;;;;;4975822;28;98543;-74
2022/10/08 07:16:36;;;;;;;5.40;2.55;;;13.90;99.90;;;;;;4974302;28;97928;-74
2022/10/08 07:19:04;;;;;;;7.65;2.60;;;13.90;99.90;;;;;;4975479;28;99434;-74
2022/10/08 07:21:31;;;;;;;6.70;2.78;;;14.10;99.90;;;;;;4973644;28;112056;-75
2022/10/08 07:23:59;;;;;;;7.47;2.75;;;14.30;99.90;;;;;;4974054;28;99267;-75
2022/10/08 07:26:31;;;;;;;8.35;2.50;;;14.40;99.90;;;;;;4957946;28;98609;-75
2022/10/08 07:29:20;;;;;;;5.50;2.33;;;14.50;99.90;;;;;;4974690;28;99253;-75
2022/10/08 07:31:49;;;;;;;4.25;2.30;;;14.60;99.90;;;;;;4975331;28;98571;-75
2022/10/08 07:34:16;;;;;;;7.20;2.67;;;14.60;99.90;;;;;;4974450;28;98663;-75
2022/10/08 07:36:43;;;;;;;9.52;2.72;;;14.70;99.90;;;;;;4974030;28;98523;-75
2022/10/08 07:39:17;;;;;;;6.03;2.42;;;14.80;99.90;;;;;;4973888;28;99331;-75
2022/10/08 07:41:45;;;;;;;6.82;2.53;;;15.00;99.90;;;;;;4974028;28;98969;-75
2022/10/08 07:44:14;;;;;;;9.30;2.78;;;15.10;99.90;;;;;;4957620;28;99210;-74
2022/10/08 07:46:49;;;;;;;9.98;2.80;;;15.20;99.90;;;;;;4974999;28;98567;-74
2022/10/08 07:49:17;;;;;;;5.53;2.85;;;15.50;99.90;;;;;;4973129;28;102793;-75
2022/10/08 07:51:45;;;;;;;7.80;3.40;;;15.80;99.90;;;;;;4974535;28;99729;-75
2022/10/08 07:54:16;;;;;;;5.70;3.50;;;16.30;99.90;;;;;;4975322;28;98427;-75
2022/10/08 07:56:44;;;;;;;6.10;3.67;;;16.90;99.90;;;;;;4973736;28;98972;-75
2022/10/08 07:59:13;;;;;;;9.40;3.40;;;17.40;99.90;;;;;;4973534;28;99303;-75
2022/10/08 08:01:41;;;;;;;6.95;3.75;;;17.80;99.90;;;;;;4973253;28;98953;-74
2022/10/08 08:04:09;;;;;;;7.40;3.10;;;18.30;99.90;;;;;;4973915;28;98570;-73
2022/10/08 08:06:42;;;;;;;10.52;2.00;;;18.70;99.90;;;;;;4975063;28;97779;-73
2022/10/08 08:09:10;;;;;;;7.88;2.60;;;19.10;99.90;;;;;;4973500;28;99214;-73
2022/10/08 08:11:38;;;;;;;7.82;3.28;;;19.20;99.90;;;;;;4973251;28;99067;-73
2022/10/08 08:14:06;;;;;;;7.15;2.17;;;19.20;99.90;;;;;;4956958;28;100006;-73
2022/10/08 08:16:33;;;;;;;5.22;2.13;;;19.10;99.90;;;;;;4973293;28;98594;-73
2022/10/08 08:19:01;;;;;;;6.80;2.22;;;19.00;99.90;;;;;;4974329;28;99237;-73
2022/10/08 08:21:31;;;;;;;5.15;1.80;;;18.70;99.90;;;;;;4974258;28;99047;-73
2022/10/08 08:24:09;;;;;;;6.85;2.25;;;18.30;99.90;;;;;;4973384;28;98550;-73
2022/10/08 08:26:38;;;;;;;10.82;2.65;;;18.10;99.90;;;;;;4974569;28;98541;-73
2022/10/08 08:29:12;;;;;;;11.70;3.58;;;17.80;99.90;;;;;;4972182;28;102443;-73
2022/10/08 08:31:42;;;;;;;4.75;2.00;;;17.60;99.90;;;;;;4973114;28;99045;-73
2022/10/08 08:34:13;;;;;;;8.57;2.20;;;17.40;99.90;;;;;;4972924;28;98589;-73
2022/10/08 08:36:43;;;;;;;6.07;1.70;;;17.20;99.90;;;;;;4974472;28;98584;-73
2022/10/08 08:39:16;;;;;;;11.02;2.83;;;17.00;99.90;;;;;;4956081;28;102502;-73
2022/10/08 08:42:01;;;;;;;7.75;2.45;;;16.90;99.90;;;;;;4972244;28;102208;-73
2022/10/08 08:44:43;;;;;;;5.18;1.45;;;16.90;99.90;;;;;;4974380;28;98435;-73
2022/10/08 08:47:23;;;;;;;6.95;1.98;;;16.90;99.90;;;;;;4973188;28;98609;-73
2022/10/08 08:50:12;;;;;;;10.98;2.28;;;17.00;99.90;;;;;;4956073;28;101845;-73
2022/10/08 08:52:42;;;;;;;8.82;2.13;;;16.90;99.90;;;;;;4971346;28;100159;-73
2022/10/08 08:55:14;;;;;;;6.28;1.65;;;16.80;99.90;;;;;;4972696;28;99073;-73
2022/10/08 08:57:59;;;;;;;7.85;1.92;;;16.70;99.90;;;;;;4974467;28;97763;-73
2022/10/08 09:00:40;;;;;;;8.88;2.47;;;16.70;99.90;;;;;;4972459;28;100544;-73
2022/10/08 09:03:20;;;;;;;6.85;2.05;;;16.60;99.90;;;;;;4972542;28;101703;-73
2022/10/08 09:05:55;;;;;;;5.57;1.83;;;16.70;99.90;;;;;;4972369;28;99875;-73
2022/10/08 09:08:39;;;;;;;7.38;2.28;;;16.60;99.90;;;;;;4956412;28;98609;-73
2022/10/08 09:11:10;;;;;;;9.07;1.90;;;16.80;99.90;;;;;;4973863;28;98559;-73
2022/10/08 09:13:46;;;;;;;7.53;2.05;;;16.70;99.90;;;;;;4973773;28;99025;-73
2022/10/08 09:16:14;;;;;;;6.90;2.08;;;16.70;99.90;;;;;;4972601;28;98716;-73
2022/10/08 09:18:45;;;;;;;7.93;1.98;;;16.70;99.90;;;;;;4972405;28;98527;-73
2022/10/08 09:21:12;;;;;;;6.13;1.70;;;16.90;99.90;;;;;;4972108;28;102056;-73
2022/10/08 09:23:40;;;;;;;5.80;1.63;;;17.00;99.90;;;;;;4972821;28;114800;-75
2022/10/08 09:26:06;;;;;;;7.65;1.58;;;17.20;99.90;;;;;;4972457;28;98626;-75
2022/10/08 09:28:54;;;;;;;7.40;1.83;;;17.30;99.90;;;;;;4971471;28;98594;-75
2022/10/08 09:31:31;;;;;;;6.13;1.90;;;17.40;99.90;;;;;;4971643;28;100048;-73
2022/10/08 09:34:14;;;;;;;6.22;1.83;;;17.20;99.90;;;;;;4973241;28;99738;-73
2022/10/08 09:36:47;;;;;;;5.15;1.60;;;17.10;99.90;;;;;;4973803;28;98566;-73
2022/10/08 09:39:22;;;;;;;5.95;1.67;;;16.90;99.80;;;;;;4972431;28;98503;-73
2022/10/08 09:42:06;;;;;;;7.10;3.08;;;16.70;99.90;;;;;;4973203;28;99195;-73
2022/10/08 09:44:41;;;;;;;9.05;1.25;;;16.60;99.90;;;;;;4971868;28;99018;-73
2022/10/08 09:47:22;;;;;;;9.45;2.10;;;16.50;99.90;;;;;;4973622;28;98552;-73
2022/10/08 09:50:07;;;;;;;4.20;1.42;;;16.50;99.90;;;;;;4973770;28;97794;-73
2022/10/08 09:52:35;;;;;;;4.43;1.63;;;16.50;99.90;;;;;;4971898;28;99504;-73
2022/10/08 09:55:20;;;;;;;6.63;1.38;;;16.40;99.90;;;;;;4972554;28;99819;-73
2022/10/08 09:58:02;;;;;;;5.68;1.70;;;16.60;99.90;;;;;;4972745;28;99378;-73
2022/10/08 10:00:34;;;;;;;4.53;1.38;;;16.50;99.90;;;;;;4971921;28;99128;-73
2022/10/08 10:03:04;;;;;;;3.72;1.50;;;16.50;99.90;;;;;;4973027;28;99329;-73
2022/10/08 10:05:33;;;;;;;6.13;1.70;;;16.60;99.90;;;;;;4971476;28;101889;-75
2022/10/08 10:08:01;;;;;;;6.43;1.70;;;16.70;99.90;;;;;;4955297;28;98585;-75
2022/10/08 10:10:37;;;;;;;3.85;1.17;;;16.80;99.90;;;;;;4955591;28;98642;-75
2022/10/08 10:13:18;;;;;;;4.75;1.45;;;16.90;99.90;;;;;;4971477;28;99260;-75
2022/10/08 10:16:04;;;;;;;5.55;2.20;;;17.00;99.70;;;;;;4973173;28;98801;-75
2022/10/08 10:18:46;;;;;;;2.85;0.75;;;17.20;99.80;;;;;;4973132;28;98449;-75
2022/10/08 10:21:20;;;;;;;3.80;1.23;;;17.30;99.20;;;;;;4971440;28;98622;-75
2022/10/08 10:24:10;;;;;;;7.00;1.38;;;17.40;98.90;;;;;;4972368;28;100056;-75
2022/10/08 10:26:40;;;;;;;6.15;1.15;;;17.60;98.90;;;;;;4971425;28;99743;-75
2022/10/08 10:29:18;;;;;;;7.10;1.52;;;17.60;98.30;;;;;;4972422;28;98527;-75
2022/10/08 10:32:13;;;;;;;2.95;0.90;;;17.80;98.00;;;;;;4973010;28;98526;-75
2022/10/08 10:34:43;;;;;;;2.90;1.20;;;18.10;97.10;;;;;;4971445;28;99338;-75
2022/10/08 10:37:17;;;;;;;4.43;1.90;;;18.20;96.20;;;;;;4972136;28;99113;-75
2022/10/08 10:40:07;;;;;;;6.10;1.95;;;18.50;95.40;;;;;;4955193;28;98695;-75
2022/10/08 10:42:54;;;;;;;7.00;2.25;;;18.80;95.30;;;;;;4973332;28;97792;-75
2022/10/08 10:45:26;;;;;;;5.95;1.25;;;19.10;93.90;;;;;;4971341;28;99309;-75
2022/10/08 10:47:54;;;;;;;4.53;1.27;;;19.20;93.40;;;;;;4972195;28;99125;-75
2022/10/08 10:50:35;;;;;;;3.53;1.10;;;19.40;93.00;;;;;;4970881;28;99270;-75
2022/10/08 10:53:21;;;;;;;6.97;1.38;;;19.60;91.80;;;;;;4972619;28;98557;-75
2022/10/08 10:55:57;;;;;;;4.18;1.00;;;19.70;91.40;;;;;;4971995;28;100831;-75
2022/10/08 10:58:24;;;;;;;4.80;1.73;;;19.60;91.30;;;;;;4970721;28;99873;-75
2022/10/08 11:01:01;;;;;;;5.57;2.03;;;19.70;91.10;;;;;;4972480;28;98503;-75
2022/10/08 11:03:46;;;;;;;2.70;0.75;;;19.90;90.40;;;;;;4972832;28;98903;-75
2022/10/08 11:06:26;;;;;;;6.78;1.25;;;19.80;88.70;;;;;;4970374;28;101773;-75
2022/10/08 11:09:02;;;;;;;5.13;1.60;;;19.60;89.60;;;;;;4971000;28;101625;-75
2022/10/08 11:12:14;;;;;;;5.03;1.55;;;19.30;90.00;;;;;;4987255;28;98482;-75
2022/10/08 11:15:18;;;;;;;5.80;1.30;;;19.30;90.30;;;;;;4914413;28;98708;-76
2022/10/08 11:17:48;;;;;;;6.50;1.63;;;19.00;89.90;;;;;;4971842;28;99982;-75
2022/10/08 11:20:23;;;;;;;6.07;1.33;;;19.00;90.70;;;;;;4971468;28;99631;-75
2022/10/08 11:23:21;;;;;;;7.78;1.55;;;19.10;90.80;;;;;;4970821;28;98532;-75
2022/10/08 11:26:00;;;;;;;6.60;1.45;;;19.30;90.50;;;;;;4954559;28;98528;-75
2022/10/08 11:28:56;;;;;;;6.32;1.80;;;19.50;90.80;;;;;;4970658;28;99222;-75
2022/10/08 11:31:44;;;;;;;4.90;2.45;;;19.60;90.80;;;;;;4954222;28;101630;-75
2022/10/08 11:34:33;;;;;;;7.93;1.55;;;19.60;90.40;;;;;;4970493;28;98653;-75
2022/10/08 11:37:22;;;;;;;8.23;1.55;;;19.60;88.70;;;;;;4970540;28;97907;-75
2022/10/08 11:39:52;;;;;;;6.70;1.42;;;19.40;88.60;;;;;;4972013;28;99320;-75
2022/10/08 11:42:47;;;;;;;5.80;1.45;;;19.20;89.20;;;;;;4970187;28;101782;-75
2022/10/08 11:45:23;;;;;;;5.60;1.98;;;19.30;89.10;;;;;;4972379;28;99304;-75
2022/10/08 11:47:53;;;;;;;3.08;0.90;;;19.40;89.50;;;;;;4957470;28;98774;-75
2022/10/08 11:50:30;;;;;;;5.15;1.30;;;19.30;87.10;;;;;;4974321;28;99395;-75
2022/10/08 11:53:09;;;;;;;4.18;1.35;;;19.40;86.10;;;;;;4974814;28;99110;-75
2022/10/08 11:55:37;;;;;;;9.57;1.75;;;19.30;86.30;;;;;;4973702;28;98638;-75
2022/10/08 11:58:15;;;;;;;7.88;1.70;;;19.40;86.60;;;;;;4974963;28;98519;-75
2022/10/08 12:00:44;;;;;;;5.55;2.13;;;19.50;86.70;;;;;;4973178;28;102097;-75
2022/10/08 12:03:29;;;;;;;5.28;1.25;;;19.60;87.10;;;;;;4974811;28;99101;-75
2022/10/08 12:06:12;;;;;;;9.77;1.80;;;19.70;85.80;;;;;;4973548;28;98713;-75
2022/10/08 12:09:13;;;;;;;7.40;1.63;;;19.60;86.00;;;;;;4975048;28;98659;-75
2022/10/08 12:11:39;;;;;;;6.95;1.85;;;19.50;84.20;;;;;;4969862;28;100185;-75
2022/10/08 12:14:09;;;;;;;7.53;2.50;;;19.40;85.40;;;;;;4972942;28;101082;-75
2022/10/08 12:16:57;;;;;;;4.15;1.90;;;19.30;85.30;;;;;;4973482;28;98537;-75
2022/10/08 12:19:33;;;;;;;5.90;1.73;;;19.40;85.30;;;;;;4974543;28;99282;-75
2022/10/08 12:22:05;;;;;;;5.45;1.30;;;19.60;86.70;;;;;;4972742;28;101887;-75
2022/10/08 12:24:38;;;;;;;5.70;2.85;;;19.90;86.10;;;;;;4974493;28;99062;-75
2022/10/08 12:27:17;;;;;;;8.20;1.67;;;20.10;84.50;;;;;;4974845;28;98762;-75
2022/10/08 12:30:10;;;;;;;5.53;1.40;;;20.10;85.10;;;;;;4974863;28;97842;-75
2022/10/08 12:32:43;;;;;;;5.22;0.90;;;20.00;87.10;;;;;;4974320;28;99338;-75
2022/10/08 12:35:21;;;;;;;5.05;1.30;;;19.60;87.80;;;;;;4972698;28;99042;-75
2022/10/08 12:38:04;;;;;;;4.20;1.42;;;19.20;88.80;;;;;;4972917;28;99759;-75
2022/10/08 12:40:40;;;;;;;3.25;0.90;;;18.70;88.10;;;;;;4973005;28;98587;-74
2022/10/08 12:43:35;;;;;;;5.18;1.75;;;18.20;89.40;;;;;;4974517;28;99314;-74
2022/10/08 12:46:37;;;;;;;6.00;1.35;;;17.90;90.10;;;;;;4972928;28;99218;-74
2022/10/08 12:49:22;;;;;;;3.95;1.13;;;17.60;90.10;;;;;;4972195;28;98662;-74
2022/10/08 12:52:12;;;;;;;3.05;1.20;;;17.40;90.80;;;;;;4972802;28;98531;-74
2022/10/08 12:54:50;;;;;;;6.82;1.63;;;17.30;90.90;;;;;;4974044;28;99411;-74
2022/10/08 12:57:33;;;;;;;5.45;1.38;;;17.40;91.10;;;;;;4971797;28;101791;-74
2022/10/08 13:00:30;;;;;;;5.80;1.30;;;17.50;91.70;;;;;;4974401;28;98948;-75
2022/10/08 13:03:02;;;;;;;5.70;1.63;;;17.50;92.00;;;;;;4969941;28;98515;-75
2022/10/08 13:05:36;;;;;;;4.30;1.10;;;17.50;92.70;;;;;;4973095;28;100367;-75
2022/10/08 13:08:30;;;;;;;4.72;1.20;;;17.70;93.10;;;;;;4972181;28;102415;-75
2022/10/08 13:10:59;;;;;;;6.22;1.35;;;17.90;92.20;;;;;;4974366;28;98708;-75
2022/10/08 13:13:32;;;;;;;6.03;1.40;;;18.10;92.00;;;;;;4973809;28;98933;-75
2022/10/08 13:16:00;;;;;;;6.95;1.20;;;18.20;92.00;;;;;;4972281;28;99091;-75
2022/10/08 13:18:29;;;;;;;4.47;1.95;;;18.40;92.10;;;;;;4971938;28;101949;-75